createdAt,value
2018-06-05T00:01:02.978Z,11.57
2018-06-05T00:03:33.186Z,12.60
2018-06-05T00:06:04.031Z,12.38
2018-06-05T00:08:33.980Z,13.40
2018-06-05T00:11:04.366Z,13.47
2018-06-05T00:13:35.041Z,12.63
2018-06-05T00:16:05.914Z,13.70
2018-06-05T00:18:36.439Z,14.83
2018-06-05T00:21:07.140Z,11.67
2018-06-05T00:23:37.493Z,15.08
2018-06-05T00:26:08.405Z,14.03
2018-06-05T00:28:38.834Z,14.90
2018-06-05T00:31:08.764Z,12.93
2018-06-05T00:33:39.035Z,15.07
2018-06-05T00:36:09.048Z,16.10
2018-06-05T00:38:39.064Z,15.13
2018-06-05T00:41:09.608Z,15.47
2018-06-05T00:43:39.709Z,17.57
2018-06-05T00:46:09.653Z,17.33
2018-06-05T00:48:40.024Z,16.27
2018-06-05T00:52:14.805Z,18.77
2018-06-05T00:54:44.825Z,16.80
2018-06-05T00:57:14.967Z,18.57
2018-06-05T00:59:45.343Z,18.02
2018-06-05T01:02:16.073Z,19.67
2018-06-05T01:04:46.643Z,20.45
2018-06-05T01:07:16.912Z,20.72
2018-06-05T01:09:47.504Z,21.17
2018-06-05T01:12:17.939Z,21.37
2018-06-05T01:14:48.420Z,19.82
2018-06-05T01:17:18.938Z,20.12
2018-06-05T01:19:49.793Z,23.77
2018-06-05T01:22:20.076Z,22.87
2018-06-05T01:24:50.660Z,22.98
2018-06-05T01:27:21.468Z,20.30
2018-06-05T01:29:52.544Z,20.10
2018-06-05T01:32:22.743Z,22.60
2018-06-05T01:34:52.917Z,22.27
2018-06-05T01:37:23.090Z,23.00
2018-06-05T01:39:53.439Z,19.00
2018-06-05T01:42:24.243Z,24.23
2018-06-05T01:44:54.705Z,25.20
2018-06-05T01:47:25.439Z,24.35
2018-06-05T01:49:55.853Z,24.70
2018-06-05T01:52:26.341Z,23.12
2018-06-05T01:54:57.131Z,24.50
2018-06-05T01:57:27.485Z,23.40
2018-06-05T01:59:57.770Z,23.57
2018-06-05T02:02:28.548Z,24.10
2018-06-05T02:04:59.227Z,25.25
2018-06-05T02:07:29.179Z,25.62
2018-06-05T02:10:00.388Z,27.15
2018-06-05T02:12:30.740Z,21.62
2018-06-05T02:15:00.904Z,26.48
2018-06-05T02:17:32.026Z,26.23
2018-06-05T02:20:02.202Z,25.62
2018-06-05T02:22:32.732Z,25.55
2018-06-05T02:25:03.194Z,26.77
2018-06-05T02:27:33.866Z,25.82
2018-06-05T02:30:04.197Z,23.77
2018-06-05T02:32:34.698Z,27.73
2018-06-05T02:35:05.640Z,28.75
2018-06-05T02:37:35.984Z,22.70
2018-06-05T02:40:07.620Z,27.03
2018-06-05T02:42:37.880Z,25.70
2018-06-05T02:45:08.021Z,26.17
2018-06-05T02:47:38.286Z,25.23
2018-06-05T02:50:09.084Z,25.02
2018-06-05T02:52:39.253Z,21.97
2018-06-05T02:55:09.300Z,25.67
2018-06-05T02:57:39.409Z,26.43
2018-06-05T03:00:09.323Z,22.63
2018-06-05T03:02:39.470Z,23.67
2018-06-05T03:05:09.670Z,25.33
2018-06-05T03:07:39.880Z,26.43
2018-06-05T03:10:10.921Z,25.23
2018-06-05T03:12:41.206Z,24.03
2018-06-05T03:15:11.460Z,28.03
2018-06-05T03:17:41.671Z,25.53
2018-06-05T03:20:11.756Z,26.17
2018-06-05T03:22:42.039Z,23.73
2018-06-05T03:25:11.841Z,25.77
2018-06-05T03:27:42.368Z,27.10
2018-06-05T03:30:12.545Z,26.57
2018-06-05T03:32:42.751Z,23.73
2018-06-05T03:35:12.956Z,23.03
2018-06-05T03:37:43.171Z,23.57
2018-06-05T03:40:13.039Z,23.00
2018-06-05T03:42:43.062Z,25.03
2018-06-05T03:45:13.175Z,24.97
2018-06-05T03:47:42.995Z,24.10
2018-06-05T03:50:13.202Z,26.20
2018-06-05T03:52:43.415Z,22.45
2018-06-05T03:55:13.644Z,24.13
2018-06-05T03:57:43.736Z,25.47
2018-06-05T04:00:13.661Z,22.57
2018-06-05T04:02:43.773Z,26.27
2018-06-05T04:05:13.855Z,27.27
2018-06-05T04:07:43.748Z,24.73
2018-06-05T04:10:13.772Z,26.13
2018-06-05T04:12:43.623Z,24.23
2018-06-05T04:15:13.713Z,24.23
2018-06-05T04:17:43.613Z,26.52
2018-06-05T04:20:13.606Z,26.97
2018-06-05T04:22:43.910Z,27.27
2018-06-05T04:25:13.756Z,27.70
2018-06-05T04:27:44.205Z,27.93
2018-06-05T04:30:14.346Z,28.23
2018-06-05T04:32:44.353Z,29.17
2018-06-05T04:35:14.750Z,28.00
2018-06-05T04:37:44.616Z,30.07
2018-06-05T04:40:14.780Z,28.17
2018-06-05T04:42:44.961Z,31.03
2018-06-05T04:45:15.156Z,31.05
2018-06-05T04:47:45.160Z,31.40
2018-06-05T04:50:15.016Z,28.83
2018-06-05T04:52:45.027Z,30.57
2018-06-05T04:55:15.426Z,28.20
2018-06-05T04:57:45.689Z,30.68
2018-06-05T05:00:15.637Z,28.90
2018-06-05T05:02:45.960Z,30.30
2018-06-05T05:05:16.216Z,30.52
2018-06-05T05:07:46.348Z,29.23
2018-06-05T05:10:16.509Z,29.45
2018-06-05T05:12:46.762Z,31.70
2018-06-05T05:15:16.905Z,32.58
2018-06-05T05:17:47.240Z,30.45
2018-06-05T05:20:17.380Z,32.57
2018-06-05T05:22:47.657Z,33.25
2018-06-05T05:25:17.775Z,31.30
2018-06-05T05:27:47.841Z,30.47
2018-06-05T05:30:18.076Z,17.90
2018-06-05T05:32:48.066Z,20.87
2018-06-05T05:35:18.034Z,21.83
2018-06-05T05:37:48.152Z,25.70
2018-06-05T05:40:17.975Z,25.53
2018-06-05T05:42:48.361Z,24.10
2018-06-05T05:45:18.262Z,25.03
2018-06-05T05:47:48.484Z,22.05
2018-06-05T05:50:18.771Z,20.50
2018-06-05T05:52:49.515Z,20.92
2018-06-05T05:55:19.869Z,21.23
2018-06-05T05:57:50.374Z,22.00
2018-06-05T06:00:20.431Z,26.45
2018-06-05T06:02:51.612Z,28.95
2018-06-05T06:05:22.080Z,24.83
2018-06-05T06:07:52.206Z,27.13
2018-06-05T06:10:23.345Z,25.97
2018-06-05T06:12:53.302Z,24.30
2018-06-05T06:15:24.191Z,28.17
2018-06-05T06:17:54.715Z,28.65
2018-06-05T06:20:25.071Z,28.87
2018-06-05T06:22:55.707Z,27.40
2018-06-05T06:25:26.313Z,29.02
2018-06-05T06:27:56.566Z,26.75
2018-06-05T06:30:27.545Z,27.02
2018-06-05T06:32:57.836Z,30.02
2018-06-05T06:35:28.422Z,26.42
2018-06-05T06:37:59.272Z,27.65
2018-06-05T06:40:29.407Z,30.17
2018-06-05T06:42:59.705Z,28.27
2018-06-05T06:45:30.116Z,27.25
2018-06-05T06:48:01.018Z,27.77
2018-06-05T06:50:31.312Z,28.27
2018-06-05T06:53:01.896Z,26.70
2018-06-05T06:55:32.515Z,29.13
2018-06-05T06:58:02.734Z,27.93
2018-06-05T07:00:33.352Z,29.45
2018-06-05T07:03:03.718Z,28.57
2018-06-05T07:05:33.872Z,30.37
2018-06-05T07:08:03.850Z,31.17
2018-06-05T07:10:33.782Z,30.30
2018-06-05T07:13:03.910Z,28.57
2018-06-05T07:15:34.072Z,34.87
2018-06-05T07:18:04.150Z,29.77
2018-06-05T07:20:34.327Z,31.90
2018-06-05T07:23:04.767Z,30.10
2018-06-05T07:25:34.905Z,30.27
2018-06-05T07:28:04.740Z,30.87
2018-06-05T07:30:35.096Z,33.40
2018-06-05T07:33:05.410Z,33.03
2018-06-05T07:35:35.765Z,31.97
2018-06-05T07:38:05.955Z,32.33
2018-06-05T07:40:35.571Z,30.47
2018-06-05T07:43:05.683Z,30.40
2018-06-05T07:45:35.423Z,28.42
2018-06-05T07:48:05.640Z,31.97
2018-06-05T07:50:35.972Z,31.27
2018-06-05T07:53:06.141Z,31.23
2018-06-05T07:55:36.119Z,29.53
2018-06-05T07:58:06.466Z,30.50
2018-06-05T08:00:36.474Z,34.33
2018-06-05T08:03:06.849Z,31.57
2018-06-05T08:05:37.131Z,32.23
2018-06-05T08:08:07.135Z,31.13
2018-06-05T08:10:37.347Z,31.77
2018-06-05T08:13:07.630Z,31.40
2018-06-05T08:15:37.862Z,32.30
2018-06-05T08:18:08.018Z,30.80
2018-06-05T08:20:37.928Z,30.23
2018-06-05T08:23:08.251Z,35.63
2018-06-05T08:25:38.307Z,31.70
2018-06-05T08:28:08.337Z,33.80
2018-06-05T08:30:38.740Z,33.80
2018-06-05T08:33:09.056Z,35.97
2018-06-05T08:35:39.288Z,31.73
2018-06-05T08:38:09.515Z,33.23
2018-06-05T08:40:39.771Z,32.80
2018-06-05T08:43:09.918Z,35.77
2018-06-05T08:45:40.115Z,35.00
2018-06-05T08:48:09.997Z,30.82
2018-06-05T08:50:40.487Z,34.70
2018-06-05T08:53:10.661Z,33.40
2018-06-05T08:55:40.851Z,31.23
2018-06-05T08:58:10.748Z,35.07
2018-06-05T09:00:41.216Z,34.03
2018-06-05T09:03:11.663Z,32.85
2018-06-05T09:05:41.844Z,32.53
2018-06-05T09:08:12.105Z,30.53
2018-06-05T09:10:42.310Z,33.07
2018-06-05T09:13:12.308Z,31.37
2018-06-05T09:15:42.578Z,28.87
2018-06-05T09:18:15.572Z,33.13
2018-06-05T09:20:45.763Z,34.63
2018-06-05T09:23:15.988Z,34.27
2018-06-05T09:25:46.143Z,33.83
2018-06-05T09:28:16.522Z,30.95
2018-06-05T09:30:48.212Z,34.33
2018-06-05T09:33:18.728Z,32.30
2018-06-05T09:35:51.908Z,34.73
2018-06-05T09:38:22.018Z,30.23
2018-06-05T09:40:52.466Z,32.57
2018-06-05T09:43:22.517Z,30.97
2018-06-05T09:45:52.276Z,32.67
2018-06-05T09:48:22.772Z,34.15
2018-06-05T09:50:53.027Z,37.50
2018-06-05T09:53:23.157Z,39.50
2018-06-05T09:55:53.336Z,41.23
2018-06-05T09:58:23.732Z,45.13
2018-06-05T10:00:54.326Z,43.20
2018-06-05T10:03:26.079Z,43.13
2018-06-05T10:05:56.211Z,44.13
2018-06-05T10:08:26.472Z,37.55
2018-06-05T10:10:56.727Z,44.48
2018-06-05T10:13:26.762Z,42.57
2018-06-05T10:15:57.019Z,42.00
2018-06-05T10:18:27.203Z,46.10
2018-06-05T10:20:57.383Z,39.47
2018-06-05T10:23:27.732Z,41.40
2018-06-05T10:25:57.892Z,46.97
2018-06-05T10:28:28.058Z,36.27
2018-06-05T10:30:58.149Z,34.60
2018-06-05T10:33:28.198Z,36.17
2018-06-05T10:35:58.504Z,38.20
2018-06-05T10:38:28.362Z,45.00
2018-06-05T10:40:58.508Z,43.37
2018-06-05T10:43:28.794Z,41.80
2018-06-05T10:45:58.833Z,44.13
2018-06-05T10:48:28.933Z,47.73
2018-06-05T10:50:58.932Z,45.37
2018-06-05T10:53:29.043Z,39.67
2018-06-05T10:55:59.087Z,41.17
2018-06-05T10:58:28.908Z,44.33
2018-06-05T11:00:58.897Z,44.70
2018-06-05T11:03:29.013Z,45.83
2018-06-05T11:05:59.038Z,39.90
2018-06-05T11:08:29.102Z,43.93
2018-06-05T11:10:59.247Z,44.37
2018-06-05T11:13:29.227Z,42.67
2018-06-05T11:15:59.264Z,47.47
2018-06-05T11:18:29.170Z,48.00
2018-06-05T11:20:59.109Z,43.60
2018-06-05T11:23:29.488Z,48.17
2018-06-05T11:26:00.468Z,48.52
2018-06-05T11:28:30.725Z,49.83
2018-06-05T11:31:01.213Z,47.15
2018-06-05T11:33:32.808Z,50.35
2018-06-05T11:36:03.108Z,45.70
2018-06-05T11:38:33.530Z,44.23
2018-06-05T11:41:03.827Z,46.17
2018-06-05T11:43:33.778Z,48.73
2018-06-05T11:46:04.365Z,52.50
2018-06-05T11:48:35.039Z,49.07
2018-06-05T11:51:05.413Z,47.23
2018-06-05T11:53:36.128Z,50.12
2018-06-05T11:56:06.823Z,47.37
2018-06-05T11:58:37.568Z,47.05
2018-06-05T12:01:08.061Z,47.03
2018-06-05T12:03:39.254Z,48.23
2018-06-05T12:06:09.520Z,46.20
2018-06-05T12:08:39.618Z,47.70
2018-06-05T12:11:10.677Z,50.00
2018-06-05T12:13:40.972Z,46.33
2018-06-05T12:16:11.289Z,51.33
2018-06-05T12:18:41.829Z,51.45
2018-06-05T12:21:12.238Z,47.83
2018-06-05T12:23:43.663Z,54.63
2018-06-05T12:26:13.521Z,49.13
2018-06-05T12:28:44.337Z,46.23
2018-06-05T12:31:15.055Z,49.67
2018-06-05T12:33:46.151Z,45.92
2018-06-05T12:36:16.002Z,47.63
2018-06-05T12:38:46.903Z,50.12
2018-06-05T12:41:17.094Z,45.93
2018-06-05T12:43:47.317Z,44.83
2018-06-05T12:46:17.456Z,43.47
2018-06-05T12:48:47.603Z,45.95
2018-06-05T12:51:17.949Z,47.57
2018-06-05T12:53:48.112Z,42.87
2018-06-05T12:56:18.459Z,42.37
2018-06-05T12:58:48.470Z,44.20
2018-06-05T13:01:18.707Z,50.67
2018-06-05T13:03:48.924Z,47.27
2018-06-05T13:06:19.173Z,53.40
2018-06-05T13:08:49.183Z,51.13
2018-06-05T13:11:19.601Z,48.13
2018-06-05T13:13:49.610Z,46.27
2018-06-05T13:16:19.876Z,58.93
2018-06-05T13:18:50.048Z,52.90
2018-06-05T13:21:20.214Z,52.37
2018-06-05T13:23:50.537Z,56.00
2018-06-05T13:26:20.630Z,55.20
2018-06-05T13:28:50.812Z,67.50
2018-06-05T13:31:20.960Z,64.67
2018-06-05T13:33:51.189Z,65.17
2018-06-05T13:36:21.456Z,57.30
2018-06-05T13:38:51.564Z,58.00
2018-06-05T13:41:21.837Z,57.30
2018-06-05T13:43:52.176Z,56.57
2018-06-05T13:46:22.239Z,53.43
2018-06-05T13:48:52.473Z,55.30
2018-06-05T13:51:22.603Z,57.43
2018-06-05T13:53:52.899Z,54.42
2018-06-05T13:56:23.055Z,58.53
2018-06-05T13:58:53.104Z,54.38
2018-06-05T14:01:23.387Z,62.27
2018-06-05T14:03:54.040Z,62.70
2018-06-05T14:06:24.523Z,58.37
2018-06-05T14:08:54.998Z,55.27
2018-06-05T14:11:25.251Z,54.38
2018-06-05T14:13:55.358Z,49.50
2018-06-05T14:16:25.602Z,52.53
2018-06-05T14:18:55.880Z,49.67
2018-06-05T14:21:26.058Z,52.10
2018-06-05T14:23:56.180Z,41.97
2018-06-05T14:26:26.343Z,40.38
2018-06-05T14:28:56.555Z,40.60
2018-06-05T14:31:26.904Z,37.73
2018-06-05T14:33:57.388Z,36.13
2018-06-05T14:36:28.019Z,35.85
2018-06-05T14:38:58.472Z,32.83
2018-06-05T14:41:28.698Z,32.98
2018-06-05T14:43:58.681Z,27.25
2018-06-05T14:46:29.020Z,23.20
2018-06-05T14:48:59.313Z,24.85
2018-06-05T14:51:29.568Z,21.30
2018-06-05T14:54:00.004Z,19.90
2018-06-05T14:56:30.649Z,17.62
2018-06-05T14:59:00.890Z,22.77
2018-06-05T15:01:31.294Z,20.70
2018-06-05T15:04:01.253Z,22.60
2018-06-05T15:06:31.279Z,19.50
2018-06-05T15:09:01.591Z,20.72
2018-06-05T15:11:31.773Z,16.47
2018-06-05T15:14:02.054Z,21.30
2018-06-05T15:16:32.070Z,17.98
2018-06-05T15:19:02.313Z,19.47
2018-06-05T15:21:32.664Z,19.47
2018-06-05T15:24:02.518Z,21.77
2018-06-05T15:26:32.929Z,23.20
2018-06-05T15:29:03.116Z,21.95
2018-06-05T15:31:33.300Z,23.30
2018-06-05T15:34:03.584Z,24.92
2018-06-05T15:36:33.705Z,18.27
2018-06-05T15:39:03.909Z,22.80
2018-06-05T15:41:34.090Z,25.50
2018-06-05T15:44:04.301Z,24.12
2018-06-05T15:46:34.474Z,23.20
2018-06-05T15:49:04.746Z,22.47
2018-06-05T15:51:35.059Z,26.93
2018-06-05T15:54:05.299Z,21.37
2018-06-05T15:56:35.420Z,23.77
2018-06-05T15:59:05.625Z,27.33
2018-06-05T16:01:35.998Z,22.63
2018-06-05T16:04:06.371Z,32.33
2018-06-05T16:06:37.115Z,28.77
2018-06-05T16:09:10.278Z,26.00
2018-06-05T16:11:40.120Z,24.10
2018-06-05T16:14:10.441Z,25.17
2018-06-05T16:16:40.495Z,24.30
2018-06-05T16:19:09.963Z,26.57
2018-06-05T16:21:40.296Z,23.50
2018-06-05T16:24:10.319Z,24.87
2018-06-05T16:26:40.680Z,23.23
2018-06-05T16:29:10.853Z,23.90
2018-06-05T16:31:40.994Z,20.03
2018-06-05T16:34:11.036Z,23.47
2018-06-05T16:36:41.228Z,22.57
2018-06-05T16:39:18.123Z,24.10
2018-06-05T16:41:48.443Z,25.10
2018-06-05T16:44:18.652Z,21.60
2018-06-05T16:46:48.695Z,26.67
2018-06-05T16:49:19.198Z,23.02
2018-06-05T16:51:49.433Z,24.47
2018-06-05T16:54:19.593Z,24.43
2018-06-05T16:56:50.000Z,25.83
2018-06-05T16:59:20.228Z,23.37
2018-06-05T17:01:50.441Z,23.77
2018-06-05T17:04:20.600Z,25.03
2018-06-05T17:06:50.980Z,26.83
2018-06-05T17:09:21.646Z,24.83
2018-06-05T17:11:51.968Z,24.30
2018-06-05T17:14:22.006Z,22.97
2018-06-05T17:16:52.222Z,23.60
2018-06-05T17:19:22.433Z,26.63
2018-06-05T17:21:52.723Z,23.13
2018-06-05T17:24:23.078Z,25.60
2018-06-05T17:26:53.225Z,27.10
2018-06-05T17:29:23.288Z,26.33
2018-06-05T17:31:53.653Z,25.47
2018-06-05T17:34:23.595Z,26.80
2018-06-05T17:36:53.943Z,25.00
2018-06-05T17:39:24.998Z,24.72
2018-06-05T17:41:55.208Z,23.30
2018-06-05T17:44:25.298Z,26.63
2018-06-05T17:46:56.210Z,23.38
2018-06-05T17:49:26.697Z,18.73
2018-06-05T17:51:57.219Z,21.23
2018-06-05T17:54:28.088Z,20.90
2018-06-05T17:56:58.476Z,19.80
2018-06-05T17:59:28.996Z,20.77
2018-06-05T18:01:59.658Z,22.15
2018-06-05T18:04:30.120Z,22.33
2018-06-05T18:07:00.968Z,21.82
2018-06-05T18:09:31.146Z,23.17
2018-06-05T18:12:01.950Z,17.90
2018-06-05T18:14:32.214Z,20.13
2018-06-05T18:17:03.071Z,22.20
2018-06-05T18:19:33.564Z,27.17
2018-06-05T18:22:04.636Z,20.00
2018-06-05T18:24:34.857Z,20.87
2018-06-05T18:27:05.868Z,23.32
2018-06-05T18:29:36.829Z,22.83
2018-06-05T18:32:06.985Z,20.57
2018-06-05T18:34:37.766Z,16.57
2018-06-05T18:37:08.419Z,19.10
2018-06-05T18:39:38.593Z,20.93
2018-06-05T18:42:08.685Z,20.77
2018-06-05T18:44:38.828Z,17.03
2018-06-05T18:47:08.616Z,18.20
2018-06-05T18:49:38.864Z,18.57
2018-06-05T18:52:09.465Z,17.83
2018-06-05T18:54:39.975Z,17.10
2018-06-05T18:57:10.016Z,19.90
2018-06-05T18:59:40.528Z,20.97
2018-06-05T19:02:10.799Z,19.67
2018-06-05T19:04:40.374Z,18.17
2018-06-05T19:07:10.712Z,18.67
2018-06-05T19:09:41.011Z,21.10
2018-06-05T19:12:11.350Z,20.67
2018-06-05T19:14:41.269Z,20.97
2018-06-05T19:17:11.504Z,18.07
2018-06-05T19:19:41.541Z,21.43
2018-06-05T19:22:11.866Z,20.70
2018-06-05T19:24:42.113Z,20.47
2018-06-05T19:27:12.660Z,17.77
2018-06-05T19:29:43.098Z,19.27
2018-06-05T19:32:13.701Z,18.03
2018-06-05T19:34:43.814Z,19.30
2018-06-05T19:37:14.118Z,17.53
2018-06-05T19:39:44.317Z,18.92
2018-06-05T19:42:14.587Z,20.30
2018-06-05T19:44:44.669Z,20.50
2018-06-05T19:47:14.795Z,18.57
2018-06-05T19:49:44.838Z,21.57
2018-06-05T19:52:15.126Z,19.50
2018-06-05T19:54:45.319Z,19.90
2018-06-05T19:57:15.508Z,18.53
2018-06-05T19:59:45.789Z,19.27
2018-06-05T20:02:15.929Z,20.80
2018-06-05T20:04:46.167Z,19.90
2018-06-05T20:07:16.417Z,20.93
2018-06-05T20:09:46.584Z,20.93
2018-06-05T20:12:16.517Z,21.93
2018-06-05T20:14:46.648Z,19.07
2018-06-05T20:17:16.806Z,19.20
2018-06-05T20:19:46.767Z,19.20
2018-06-05T20:22:16.617Z,20.20
2018-06-05T20:24:46.819Z,25.87
2018-06-05T20:27:16.980Z,26.10
2018-06-05T20:29:47.183Z,26.40
2018-06-05T20:32:17.322Z,25.25
2018-06-05T20:34:47.654Z,23.57
2018-06-05T20:37:17.659Z,25.27
2018-06-05T20:39:47.924Z,28.52
2018-06-05T20:42:18.109Z,28.10
2018-06-05T20:44:48.349Z,25.43
2018-06-05T20:47:18.395Z,23.52
2018-06-05T20:49:48.538Z,26.67
2018-06-05T20:52:18.924Z,25.92
2018-06-05T20:54:49.185Z,23.00
2018-06-05T20:57:19.504Z,22.30
2018-06-05T20:59:49.596Z,25.37
2018-06-05T21:02:20.023Z,24.73
2018-06-05T21:04:50.249Z,25.32
2018-06-05T21:07:20.504Z,26.17
2018-06-05T21:09:50.695Z,24.43
2018-06-05T21:12:20.965Z,26.67
2018-06-05T21:14:50.998Z,25.67
2018-06-05T21:17:21.236Z,25.77
2018-06-05T21:19:51.316Z,26.53
2018-06-05T21:22:21.249Z,24.23
2018-06-05T21:24:51.304Z,23.17
2018-06-05T21:27:21.732Z,23.00
2018-06-05T21:29:51.781Z,22.67
2018-06-05T21:32:21.925Z,24.98
2018-06-05T21:34:52.164Z,23.92
2018-06-05T21:37:22.355Z,24.13
2018-06-05T21:39:52.514Z,20.97
2018-06-05T21:42:22.805Z,25.35
2018-06-05T21:44:52.998Z,24.10
2018-06-05T21:47:23.149Z,28.67
2018-06-05T21:49:53.399Z,28.27
2018-06-05T21:52:23.499Z,27.20
2018-06-05T21:54:53.835Z,25.63
2018-06-05T21:57:24.064Z,24.30
2018-06-05T21:59:54.104Z,23.70
2018-06-05T22:02:24.185Z,25.83
2018-06-05T22:04:54.017Z,26.93
2018-06-05T22:07:24.539Z,28.50
2018-06-05T22:09:55.260Z,24.37
2018-06-05T22:12:25.649Z,28.38
2018-06-05T22:14:56.197Z,28.15
2018-06-05T22:17:26.444Z,26.35
2018-06-05T22:19:57.264Z,24.97
2018-06-05T22:22:27.531Z,23.38
2018-06-05T22:24:58.041Z,26.10
2018-06-05T22:27:28.711Z,25.25
2018-06-05T22:29:59.336Z,23.07
2018-06-05T22:32:29.851Z,22.25
2018-06-05T22:35:00.492Z,25.27
2018-06-05T22:37:30.813Z,26.10
2018-06-05T22:40:00.620Z,25.32
2018-06-05T22:42:31.591Z,25.30
2018-06-05T22:45:05.281Z,27.60
2018-06-05T22:47:35.647Z,30.23
2018-06-05T22:50:05.772Z,26.47
2018-06-05T22:52:35.860Z,25.73
2018-06-05T22:55:06.287Z,28.50
2018-06-05T22:57:36.316Z,25.50
2018-06-05T23:00:06.517Z,27.87
2018-06-05T23:02:36.921Z,23.90
2018-06-05T23:05:07.046Z,24.67
2018-06-05T23:07:37.315Z,27.20
2018-06-05T23:10:07.280Z,27.97
2018-06-05T23:12:37.424Z,28.63
2018-06-05T23:15:07.577Z,29.00
2018-06-05T23:17:37.951Z,29.10
2018-06-05T23:20:08.091Z,27.00
2018-06-05T23:22:37.986Z,27.20
2018-06-05T23:25:08.156Z,24.53
2018-06-05T23:27:38.889Z,27.83
2018-06-05T23:30:08.927Z,22.90
2018-06-05T23:32:39.059Z,26.33
2018-06-05T23:35:08.609Z,27.60
2018-06-05T23:37:38.612Z,28.40
2018-06-05T23:40:08.966Z,23.93
2018-06-05T23:42:38.977Z,27.03
2018-06-05T23:45:09.076Z,29.13
2018-06-05T23:47:39.432Z,27.97
2018-06-05T23:50:09.395Z,28.27
2018-06-05T23:52:39.820Z,33.43
2018-06-05T23:55:09.912Z,34.07
2018-06-05T23:57:39.878Z,29.53
